Alamosa, CO

1:57 PM MST on November 25, 2014 (GMT -0700)
San Luis Valley Regional / Bergman Field | Change Station
CLOSE
Current Station
Airport
Location: Alamosa,
Elevation: 7543 ft
Nearby Weather Stations

Elev 7543 ft 37.44 °N, 105.86 °W | Updated 5 minutes ago

Clear
Clear
34 °F
Feels Like 30 °F
N
5
Wind Variable Wind from Variable

Today
High -- | Low -- °F
--% Chance of Precip.
Yesterday
High -- | Low -- °F
Precip. -- in
6:53 AM 4:47 PM
Waxing Crescent, 14% visible
Pressure 30.34 in
Visibility 10.0 miles
Clouds Overcast 6500 ft
Windchill 30 °F
Dew Point 2 °F
Humidity 26%
Rainfall 0.00 in
Snow Depth Not available.
UV 1 out of 12
Pollen .10 out of 12
Air Quality Not available.
Flu Activity Not available.
METAR KALS 252052Z AUTO VRB04KT 10SM OVC065 01/M17 A3019 RMK AO2 SLP272 T00111167 56019

More Conditions Fewer Conditions

Pressure 30.34 in
Visibility 10.0 miles
Clouds Overcast 6500 ft
Windchill 30 °F
Dew Point 2 °F
Humidity 26%
Rainfall 0.00 in
Snow Depth Not available.
UV 1 out of 12
Pollen .10 out of 12
Air Quality Not available.
Flu Activity Not available.
METAR KALS 252052Z AUTO VRB04KT 10SM OVC065 01/M17 A3019 RMK AO2 SLP272 T00111167 56019

More Conditions Fewer Conditions

10-Day Weather Forecast

Almanac

Astronomy

Nov. 25, 2014 Rise Set
Actual Time
Civil Twilight
Nautical Twilight
Astronomical Twilight
Moon
Length of Visible Light
Length of Day
Tomorrow will be .
, % of the Moon is Illuminated

Today's Extremes

State Highs State Lows

Community

WunderPhotos

Upload Photos

1,773,585 photos uploaded!

WunderBlogs® & News

Nearby

Air Quality

  Air Quality AQ Index Pollutant
Not available.

Snow Depth

Station Depth Elevation

Earthquake Activity

City Distance Mag. Time & Date
Minimum magnitude displayed is 2.5.

Coastal Water Temperatures

Place Temperature

Nearby Weather Stations